createdAt,value
2023-04-01T00:01:24.491Z,24.80
2023-04-01T00:03:55.498Z,24.30
2023-04-01T00:06:25.909Z,23.80
2023-04-01T00:08:55.546Z,20.60
2023-04-01T00:11:24.245Z,22.90
2023-04-01T00:13:52.540Z,20.60
2023-04-01T00:16:22.768Z,21.00
2023-04-01T00:18:52.571Z,20.00
2023-04-01T00:21:23.064Z,19.70
2023-04-01T00:23:52.397Z,18.00
2023-04-01T00:26:23.091Z,16.50
2023-04-01T00:28:52.270Z,18.40
2023-04-01T00:31:21.863Z,19.00
2023-04-01T00:33:50.707Z,17.70
2023-04-01T00:36:22.839Z,16.90
2023-04-01T00:38:52.966Z,19.90
2023-04-01T00:41:22.775Z,15.40
2023-04-01T00:43:52.496Z,14.90
2023-04-01T00:46:22.102Z,15.20
2023-04-01T00:48:56.293Z,15.50
2023-04-01T00:51:30.724Z,14.60
2023-04-01T00:54:02.928Z,15.50
2023-04-01T00:56:41.519Z,13.40
2023-04-01T00:59:17.304Z,14.00
2023-04-01T01:01:45.639Z,12.90
2023-04-01T01:04:31.489Z,12.50
2023-04-01T01:07:29.553Z,12.20
2023-04-01T01:10:11.661Z,12.40
2023-04-01T01:12:56.671Z,11.40
2023-04-01T01:15:36.171Z,9.90
2023-04-01T01:18:19.590Z,11.70
2023-04-01T01:21:08.526Z,12.70
2023-04-01T01:24:26.821Z,13.10
2023-04-01T01:27:09.416Z,11.40
2023-04-01T01:29:53.357Z,9.30
2023-04-01T01:32:59.662Z,8.80
2023-04-01T01:35:40.365Z,10.70
2023-04-01T01:38:19.335Z,10.50
2023-04-01T01:40:58.865Z,8.90
2023-04-01T01:43:35.478Z,10.40
2023-04-01T01:46:13.333Z,10.00
2023-04-01T01:48:45.850Z,8.50
2023-04-01T01:51:14.502Z,8.20
2023-04-01T01:53:42.782Z,7.60
2023-04-01T01:56:15.073Z,8.60
2023-04-01T01:58:50.437Z,7.70
2023-04-01T02:01:29.007Z,9.70
2023-04-01T02:04:00.843Z,8.30
2023-04-01T02:06:36.046Z,7.50
2023-04-01T02:09:11.844Z,8.40
2023-04-01T02:11:50.471Z,7.80
2023-04-01T02:15:03.100Z,8.00
2023-04-01T02:17:33.622Z,6.90
2023-04-01T02:20:21.900Z,6.50
2023-04-01T02:22:57.030Z,7.80
2023-04-01T02:25:31.041Z,7.40
2023-04-01T02:28:01.684Z,5.90
2023-04-01T02:30:34.990Z,7.40
2023-04-01T02:33:06.562Z,5.90
2023-04-01T02:35:39.411Z,6.70
2023-04-01T02:38:10.415Z,6.80
2023-04-01T02:40:52.727Z,6.20
2023-04-01T02:43:22.131Z,6.00
2023-04-01T02:45:50.509Z,5.60
2023-04-01T02:48:20.122Z,6.50
2023-04-01T02:50:49.017Z,7.70
2023-04-01T02:53:18.428Z,6.40
2023-04-01T02:55:46.791Z,6.30
2023-04-01T02:58:14.978Z,7.10
2023-04-01T03:00:44.280Z,5.80
2023-04-01T03:03:14.681Z,5.70
2023-04-01T03:05:44.716Z,5.90
2023-04-01T03:08:13.200Z,7.10
2023-04-01T03:10:41.497Z,5.50
2023-04-01T03:13:09.855Z,5.00
2023-04-01T03:15:38.564Z,6.10
2023-04-01T03:18:07.067Z,6.00
2023-04-01T03:20:35.818Z,6.00
2023-04-01T03:23:04.530Z,5.50
2023-04-01T03:25:33.027Z,5.70
2023-04-01T03:28:02.408Z,5.60
2023-04-01T03:30:32.400Z,5.10
2023-04-01T03:33:01.946Z,5.70
2023-04-01T03:35:33.868Z,5.20
2023-04-01T03:38:02.138Z,5.50
2023-04-01T03:40:30.631Z,5.20
2023-04-01T03:42:58.830Z,5.00
2023-04-01T03:45:27.082Z,5.90
2023-04-01T03:47:55.757Z,5.00
2023-04-01T03:50:24.037Z,4.70
2023-04-01T03:52:52.312Z,5.30
2023-04-01T03:55:21.520Z,5.60
2023-04-01T03:57:49.700Z,4.60
2023-04-01T04:00:19.532Z,4.90
2023-04-01T04:02:49.823Z,5.80
2023-04-01T04:05:22.023Z,4.90
2023-04-01T04:07:51.201Z,5.20
2023-04-01T04:10:20.822Z,4.70
2023-04-01T04:12:51.151Z,4.20
2023-04-01T04:15:20.457Z,4.60
2023-04-01T04:17:49.096Z,4.90
2023-04-01T04:20:17.704Z,5.30
2023-04-01T04:22:46.491Z,4.40
2023-04-01T04:25:20.534Z,4.50
2023-04-01T04:27:51.791Z,4.20
2023-04-01T04:30:21.978Z,4.10
2023-04-01T04:32:52.549Z,3.90
2023-04-01T04:35:21.392Z,4.30
2023-04-01T04:37:50.083Z,3.90
2023-04-01T04:40:18.557Z,3.90
2023-04-01T04:42:46.829Z,4.20
2023-04-01T04:45:16.845Z,3.50
2023-04-01T04:47:52.257Z,3.20
2023-04-01T04:50:21.491Z,4.00
2023-04-01T04:52:50.190Z,4.00
2023-04-01T04:55:21.544Z,3.50
2023-04-01T04:57:55.665Z,4.10
2023-04-01T05:00:24.024Z,3.80
2023-04-01T05:02:59.556Z,3.70
2023-04-01T05:05:28.259Z,3.30
2023-04-01T05:07:56.731Z,3.80
2023-04-01T05:10:25.119Z,3.40
2023-04-01T05:12:53.452Z,3.90
2023-04-01T05:15:24.433Z,3.70
2023-04-01T05:17:56.552Z,3.90
2023-04-01T05:20:26.922Z,2.80
2023-04-01T05:23:00.220Z,3.40
2023-04-01T05:25:28.598Z,3.20
2023-04-01T05:27:57.185Z,3.60
2023-04-01T05:30:26.068Z,2.90
2023-04-01T05:33:17.286Z,3.10
2023-04-01T05:35:45.721Z,3.60
2023-04-01T05:38:14.357Z,3.10
2023-04-01T05:40:44.981Z,2.90
2023-04-01T05:43:13.872Z,2.90
2023-04-01T05:45:42.363Z,3.50
2023-04-01T05:48:16.706Z,4.60
2023-04-01T05:50:45.874Z,4.10
2023-04-01T05:53:14.258Z,3.10
2023-04-01T05:55:44.798Z,2.90
2023-04-01T05:58:12.965Z,2.90
2023-04-01T06:00:41.963Z,3.30
2023-04-01T06:03:10.690Z,2.70
2023-04-01T06:05:45.223Z,2.70
2023-04-01T06:08:20.339Z,2.80
2023-04-01T06:11:15.746Z,3.60
2023-04-01T06:14:12.757Z,3.20
2023-04-01T06:17:06.526Z,3.10
2023-04-01T06:20:03.573Z,3.50
2023-04-01T06:23:02.589Z,2.90
2023-04-01T06:25:45.406Z,2.50
2023-04-01T06:28:57.924Z,2.20
2023-04-01T06:31:56.261Z,3.30
2023-04-01T06:34:56.519Z,2.30
2023-04-01T06:37:45.912Z,3.00
2023-04-01T06:40:58.711Z,4.50
2023-04-01T06:43:58.030Z,5.10
2023-04-01T06:47:03.064Z,4.10
2023-04-01T06:50:22.039Z,4.30
2023-04-01T06:53:20.412Z,4.50
2023-04-01T06:56:20.536Z,4.40
2023-04-01T06:59:08.228Z,4.60
2023-04-01T07:01:48.498Z,4.50
2023-04-01T07:04:37.039Z,4.10
2023-04-01T07:07:27.066Z,4.50
2023-04-01T07:10:06.345Z,2.80
2023-04-01T07:12:49.723Z,3.20
2023-04-01T07:16:17.247Z,3.10
2023-04-01T07:18:59.619Z,4.60
2023-04-01T07:21:45.896Z,4.80
2023-04-01T07:24:37.387Z,5.10
2023-04-01T07:27:15.714Z,5.00
2023-04-01T07:29:48.817Z,6.90
2023-04-01T07:32:36.260Z,5.70
2023-04-01T07:35:25.111Z,5.70
2023-04-01T07:38:49.978Z,6.90
2023-04-01T07:42:15.942Z,6.60
2023-04-01T07:45:10.678Z,7.30
2023-04-01T07:48:00.174Z,9.10
2023-04-01T07:50:57.570Z,5.20
2023-04-01T07:53:36.914Z,7.10
2023-04-01T07:56:25.873Z,6.30
2023-04-01T07:59:16.162Z,4.70
2023-04-01T08:03:20.100Z,5.00
2023-04-01T08:06:33.430Z,6.10
2023-04-01T08:09:25.484Z,7.40
2023-04-01T08:13:04.901Z,7.00
2023-04-01T08:16:27.058Z,4.70
2023-04-01T08:19:22.752Z,7.60
2023-04-01T08:21:55.733Z,5.70
2023-04-01T08:24:47.515Z,8.40
2023-04-01T08:27:35.748Z,5.50
2023-04-01T08:30:36.240Z,4.40
2023-04-01T08:33:20.432Z,5.70
2023-04-01T08:36:37.199Z,5.30
2023-04-01T08:39:33.231Z,5.60
2023-04-01T08:42:44.627Z,4.80
2023-04-01T08:45:50.725Z,4.90
2023-04-01T08:49:05.159Z,5.20
2023-04-01T08:52:18.897Z,4.40
2023-04-01T08:55:34.240Z,6.70
2023-04-01T08:58:54.976Z,5.30
2023-04-01T09:02:23.603Z,4.80
2023-04-01T09:05:42.323Z,4.70
2023-04-01T09:08:41.331Z,6.30
2023-04-01T09:11:59.512Z,7.50
2023-04-01T09:15:06.253Z,6.20
2023-04-01T09:18:07.561Z,6.00
2023-04-01T09:21:23.909Z,8.70
2023-04-01T09:24:08.670Z,8.30
2023-04-01T09:27:10.746Z,9.30
2023-04-01T09:29:42.088Z,14.70
2023-04-01T09:33:00.054Z,13.00
2023-04-01T09:35:36.584Z,17.40
2023-04-01T09:38:30.594Z,17.90
2023-04-01T09:41:23.439Z,22.40
2023-04-01T09:44:44.957Z,24.10
2023-04-01T09:48:07.133Z,28.00
2023-04-01T09:51:14.033Z,27.30
2023-04-01T09:54:07.070Z,26.70
2023-04-01T09:57:41.423Z,30.80
2023-04-01T10:00:56.242Z,27.50
2023-04-01T10:04:10.084Z,24.40
2023-04-01T10:07:12.473Z,22.30
2023-04-01T10:10:08.491Z,25.40
2023-04-01T10:13:17.929Z,25.50
2023-04-01T10:16:09.195Z,22.30
2023-04-01T10:19:13.252Z,26.00
2023-04-01T10:22:16.760Z,25.00
2023-04-01T10:25:16.883Z,27.20
2023-04-01T10:28:14.749Z,26.30
2023-04-01T10:31:40.413Z,22.20
2023-04-01T10:34:38.362Z,24.10
2023-04-01T10:37:41.642Z,22.70
2023-04-01T10:40:36.372Z,22.80
2023-04-01T10:44:23.054Z,24.00
2023-04-01T10:47:09.714Z,22.70
2023-04-01T10:50:24.740Z,21.70
2023-04-01T10:53:25.061Z,20.70
2023-04-01T10:56:47.235Z,23.90
2023-04-01T11:00:51.677Z,25.40
2023-04-01T11:04:33.834Z,23.90
2023-04-01T11:07:31.450Z,17.80
2023-04-01T11:10:17.198Z,16.80
2023-04-01T11:13:29.108Z,20.00
2023-04-01T11:17:00.633Z,17.30
2023-04-01T11:20:02.245Z,17.30
2023-04-01T11:23:01.519Z,15.70
2023-04-01T11:25:59.502Z,13.70
2023-04-01T11:29:37.475Z,13.60
2023-04-01T11:32:46.480Z,14.50
2023-04-01T11:35:36.725Z,11.40
2023-04-01T11:38:26.403Z,11.40
2023-04-01T11:41:26.741Z,12.60
2023-04-01T11:44:25.565Z,10.40
2023-04-01T11:48:08.897Z,11.80
2023-04-01T11:51:08.574Z,10.60
2023-04-01T11:53:43.711Z,12.00
2023-04-01T11:56:28.140Z,10.20
2023-04-01T11:59:29.990Z,9.40
2023-04-01T12:02:24.500Z,9.00
2023-04-01T12:05:23.225Z,10.20
2023-04-01T12:08:18.651Z,9.20
2023-04-01T12:11:16.942Z,9.70
2023-04-01T12:14:01.166Z,7.50
2023-04-01T12:17:21.660Z,8.00
2023-04-01T12:20:03.372Z,8.50
2023-04-01T12:23:25.902Z,9.60
2023-04-01T12:26:14.048Z,8.10
2023-04-01T12:29:11.865Z,8.10
2023-04-01T12:32:26.660Z,7.10
2023-04-01T12:35:29.798Z,7.10
2023-04-01T12:38:31.861Z,7.30
2023-04-01T12:41:25.720Z,6.50
2023-04-01T12:44:55.775Z,8.00
2023-04-01T12:47:33.660Z,9.90
2023-04-01T12:50:44.318Z,8.10
2023-04-01T12:54:00.727Z,6.60
2023-04-01T12:56:50.118Z,7.70
2023-04-01T12:59:58.725Z,6.80
2023-04-01T13:02:41.979Z,6.90
2023-04-01T13:05:57.187Z,8.70
2023-04-01T13:09:02.363Z,7.20
2023-04-01T13:12:30.687Z,7.70
2023-04-01T13:15:19.403Z,8.10
2023-04-01T13:18:06.366Z,6.80
2023-04-01T13:20:59.398Z,6.50
2023-04-01T13:23:46.387Z,5.60
2023-04-01T13:26:37.210Z,7.20
2023-04-01T13:29:17.700Z,6.40
2023-04-01T13:32:25.561Z,6.70
2023-04-01T13:35:30.609Z,6.60
2023-04-01T13:38:40.284Z,6.30
2023-04-01T13:41:45.768Z,6.00
2023-04-01T13:44:38.748Z,5.40
2023-04-01T13:47:28.575Z,5.70
2023-04-01T13:50:34.010Z,5.00
2023-04-01T13:56:07.196Z,5.90
2023-04-01T13:58:56.871Z,6.10
2023-04-01T14:01:57.027Z,5.40
2023-04-01T14:04:52.869Z,5.70
2023-04-01T14:07:55.563Z,5.20
2023-04-01T14:10:36.534Z,5.30
2023-04-01T14:13:34.526Z,6.30
2023-04-01T14:16:09.469Z,5.30
2023-04-01T14:19:27.127Z,4.60
2023-04-01T14:22:22.892Z,5.00
2023-04-01T14:25:13.788Z,5.40
2023-04-01T14:28:15.720Z,5.00
2023-04-01T14:31:25.531Z,4.70
2023-04-01T14:34:44.574Z,5.40
2023-04-01T14:37:49.878Z,6.10
2023-04-01T14:40:58.555Z,4.00
2023-04-01T14:44:09.986Z,4.90
2023-04-01T14:47:00.184Z,4.70
2023-04-01T14:49:44.749Z,4.30
2023-04-01T14:52:40.776Z,4.90
2023-04-01T14:55:49.603Z,5.00
2023-04-01T14:58:22.852Z,4.90
2023-04-01T15:01:19.104Z,4.90
2023-04-01T15:04:44.975Z,5.70
2023-04-01T15:07:42.411Z,4.90
2023-04-01T15:10:22.567Z,6.20
2023-04-01T15:13:38.841Z,5.70
2023-04-01T15:16:22.261Z,5.00
2023-04-01T15:19:06.091Z,5.30
2023-04-01T15:22:14.958Z,4.60
2023-04-01T15:25:34.342Z,5.60
2023-04-01T15:28:18.414Z,5.00
2023-04-01T15:31:45.395Z,4.80
2023-04-01T15:34:41.079Z,4.70
2023-04-01T15:37:44.377Z,5.00
2023-04-01T15:40:38.874Z,5.10
2023-04-01T15:43:46.661Z,5.50
2023-04-01T15:46:49.078Z,4.80
2023-04-01T15:49:26.859Z,5.80
2023-04-01T15:52:19.808Z,5.50
2023-04-01T15:55:16.966Z,5.50
2023-04-01T15:58:21.783Z,5.20
2023-04-01T16:01:18.853Z,5.00
2023-04-01T16:04:01.064Z,5.20
2023-04-01T16:06:36.628Z,5.00
2023-04-01T16:09:27.973Z,6.20
2023-04-01T16:12:37.757Z,5.70
2023-04-01T16:15:23.951Z,4.90
2023-04-01T16:18:13.423Z,5.80
2023-04-01T16:21:11.600Z,4.80
2023-04-01T16:24:02.103Z,4.70
2023-04-01T16:26:45.654Z,5.30
2023-04-01T16:29:17.200Z,5.60
2023-04-01T16:31:54.599Z,4.90
2023-04-01T16:34:37.150Z,5.90
2023-04-01T16:37:18.366Z,5.20
2023-04-01T16:40:18.143Z,5.00
2023-04-01T16:43:08.267Z,5.00
2023-04-01T16:46:20.820Z,5.70
2023-04-01T16:49:13.957Z,6.20
2023-04-01T16:51:52.346Z,5.50
2023-04-01T16:54:54.822Z,5.80
2023-04-01T16:57:37.893Z,5.70
2023-04-01T17:00:19.776Z,5.60
2023-04-01T17:03:05.340Z,6.00
2023-04-01T17:06:04.837Z,5.80
2023-04-01T17:09:19.832Z,6.00
2023-04-01T17:12:17.364Z,5.20
2023-04-01T17:15:02.157Z,7.60
2023-04-01T17:17:36.130Z,5.80
2023-04-01T17:21:01.476Z,5.90
2023-04-01T17:24:08.805Z,6.20
2023-04-01T17:27:05.302Z,5.50
2023-04-01T17:30:23.966Z,6.30
2023-04-01T17:33:31.784Z,6.30
2023-04-01T17:36:24.218Z,6.70
2023-04-01T17:39:06.928Z,9.30
2023-04-01T17:41:54.566Z,10.70
2023-04-01T17:44:53.610Z,9.90
2023-04-01T17:47:43.244Z,10.70
2023-04-01T17:50:30.612Z,9.20
2023-04-01T17:53:57.620Z,12.40
2023-04-01T17:57:04.707Z,9.90
2023-04-01T17:59:54.429Z,10.80
2023-04-01T18:03:09.040Z,9.50
2023-04-01T18:06:02.096Z,9.10
2023-04-01T18:08:44.509Z,9.50
2023-04-01T18:11:45.468Z,8.10
2023-04-01T18:14:51.618Z,8.60
2023-04-01T18:17:40.917Z,9.10
2023-04-01T18:20:55.870Z,8.80
2023-04-01T18:24:01.626Z,7.90
2023-04-01T18:26:38.343Z,7.90
2023-04-01T18:29:23.355Z,7.60
2023-04-01T18:32:18.590Z,8.70
2023-04-01T18:38:01.726Z,9.10
2023-04-01T18:40:45.796Z,8.80
2023-04-01T18:44:01.030Z,10.10
2023-04-01T18:46:46.619Z,10.40
2023-04-01T18:49:32.006Z,10.50
2023-04-01T18:52:29.352Z,10.70
2023-04-01T18:55:05.029Z,8.70
2023-04-01T18:58:00.849Z,10.30
2023-04-01T19:01:34.796Z,10.20
2023-04-01T19:04:46.565Z,9.20
2023-04-01T19:07:51.203Z,10.10
2023-04-01T19:10:31.606Z,8.50
2023-04-01T19:13:21.379Z,9.70
2023-04-01T19:16:29.741Z,8.60
2023-04-01T19:19:31.086Z,8.30
2023-04-01T19:22:35.518Z,9.10
2023-04-01T19:25:39.410Z,10.50
2023-04-01T19:28:51.009Z,9.10
2023-04-01T19:31:53.967Z,8.20
2023-04-01T19:34:53.615Z,9.20
2023-04-01T19:37:58.709Z,10.70
2023-04-01T19:40:54.879Z,9.30
2023-04-01T19:44:19.783Z,10.40
2023-04-01T19:47:18.643Z,7.70
2023-04-01T19:50:40.699Z,8.10
2023-04-01T19:53:37.722Z,8.30
2023-04-01T19:56:33.916Z,9.30
2023-04-01T19:59:14.456Z,7.80
2023-04-01T20:01:59.662Z,8.30
2023-04-01T20:04:45.068Z,7.60
2023-04-01T20:07:43.804Z,8.50
2023-04-01T20:10:44.856Z,7.70
2023-04-01T20:13:57.789Z,9.70
2023-04-01T20:16:51.598Z,6.60
2023-04-01T20:19:32.014Z,9.00
2023-04-01T20:22:06.429Z,6.80
2023-04-01T20:24:47.829Z,8.50
2023-04-01T20:27:23.924Z,8.10
2023-04-01T20:30:39.962Z,7.00
2023-04-01T20:33:44.606Z,10.40
2023-04-01T20:36:32.967Z,7.00
2023-04-01T20:39:59.673Z,6.90
2023-04-01T20:43:16.504Z,7.10
2023-04-01T20:46:08.443Z,8.30
2023-04-01T20:49:02.941Z,10.50
2023-04-01T20:51:41.499Z,11.00
2023-04-01T20:54:28.069Z,11.70
2023-04-01T20:57:36.325Z,9.40
2023-04-01T21:01:02.535Z,10.90
2023-04-01T21:04:02.015Z,10.10
2023-04-01T21:07:13.001Z,10.00
2023-04-01T21:10:32.670Z,9.70
2023-04-01T21:13:56.568Z,8.00
2023-04-01T21:16:54.739Z,11.70
2023-04-01T21:19:59.781Z,8.00
2023-04-01T21:22:48.957Z,8.50
2023-04-01T21:25:26.555Z,9.00
2023-04-01T21:28:28.731Z,7.90
2023-04-01T21:31:34.898Z,7.80
2023-04-01T21:34:15.538Z,8.60
2023-04-01T21:37:09.011Z,6.80
2023-04-01T21:39:58.586Z,8.90
2023-04-01T21:43:03.521Z,10.20
2023-04-01T21:46:06.136Z,7.90
2023-04-01T21:48:59.624Z,8.20
2023-04-01T21:52:05.434Z,8.10
2023-04-01T21:55:07.030Z,7.90
2023-04-01T21:58:14.272Z,6.40
2023-04-01T22:01:13.505Z,6.30
2023-04-01T22:04:15.558Z,7.60
2023-04-01T22:07:26.628Z,7.40
2023-04-01T22:10:01.056Z,6.50
2023-04-01T22:12:38.847Z,6.10
2023-04-01T22:15:38.818Z,6.00
2023-04-01T22:18:41.439Z,6.10
2023-04-01T22:21:24.575Z,6.20
2023-04-01T22:24:16.413Z,5.60
2023-04-01T22:26:48.673Z,5.10
2023-04-01T22:29:29.540Z,5.50
2023-04-01T22:32:28.993Z,6.80
2023-04-01T22:35:45.685Z,7.30
2023-04-01T22:41:13.855Z,4.70
2023-04-01T22:43:45.699Z,5.90
2023-04-01T22:46:26.058Z,5.60
2023-04-01T22:49:03.880Z,5.70
2023-04-01T22:52:03.383Z,5.50
2023-04-01T22:54:42.941Z,5.40
2023-04-01T22:57:21.622Z,5.00
2023-04-01T23:00:02.337Z,5.70
2023-04-01T23:02:52.998Z,5.50
2023-04-01T23:05:24.175Z,5.10
2023-04-01T23:08:43.455Z,4.70
2023-04-01T23:11:31.372Z,5.60
2023-04-01T23:14:30.173Z,5.80
2023-04-01T23:17:27.456Z,4.70
2023-04-01T23:20:25.903Z,4.70
2023-04-01T23:23:44.873Z,3.90
2023-04-01T23:26:41.969Z,4.40
2023-04-01T23:29:18.786Z,4.40
2023-04-01T23:31:49.685Z,4.60
2023-04-01T23:34:27.450Z,4.80
2023-04-01T23:37:03.193Z,4.10
2023-04-01T23:39:41.270Z,4.30
2023-04-01T23:42:32.938Z,3.30
2023-04-01T23:45:21.110Z,4.30
2023-04-01T23:47:51.883Z,3.50
2023-04-01T23:50:25.426Z,3.80
2023-04-01T23:53:04.072Z,3.70
2023-04-01T23:55:34.833Z,3.00
2023-04-01T23:58:27.605Z,4.30
